Flight Track Log - Related Links

Times and Time Zones

All times are in EDT time to prevent confusion due to time zone crossing. See the UAL363 flight status page for this flight to view local times or setup timezone preferences in your user account.

Time Position Orientation Groundspeed Altitude Reporting Facility
EDT Latitude Longitude Course Direction KTS MPH feet Rate Location/Type
Thu 10:17:00 PM 38.8793 -77.8281 260° West  Level FlightAware Approximate
Thu 10:17:05 PM 38.9253 -77.6303 253° West 232 267 4,900  Level Washington Center
Thu 10:18:00 PM 38.8791 -77.9540 293° West  Level FlightAware Approximate
Thu 10:18:06 PM 38.8944 -77.7228 247° West 255 293 6,900  Level Washington Center
Thu 10:19:00 PM 38.9112 -78.0779 288° West  Level FlightAware Approximate
Thu 10:19:07 PM 38.9056 -77.8083 280° West 255 293 9,900  Level Washington Center
Thu 10:20:00 PM 38.9491 -78.1982 303° West  Level FlightAware Approximate
Thu 10:20:05 PM 38.9200 -77.9236 279° West 292 336 12,700  Level Washington Center
Thu 10:21:00 PM 38.9500 -78.3286 270° West  Level FlightAware Approximate
Thu 10:21:06 PM 38.9364 -78.0361 281° West 306 352 15,300  Level Washington Center
Thu 10:22:07 PM 38.9528 -78.1542 280° West 323 372 17,600 2,269 Climbing Washington Center
Thu 10:23:05 PM 38.9625 -78.2800 276° West 348 400 19,800 2,168 Climbing Washington Center
Thu 10:24:06 PM 38.9678 -78.4136 273° West 366 421 21,900 1,918 Climbing Washington Center
Thu 10:25:07 PM 38.9708 -78.5472 272° West 372 428 23,700 1,736 Climbing Washington Center
Thu 10:26:07 PM 38.9758 -78.6864 273° West 384 442 25,400 1,780 Climbing Washington Center
Thu 10:27:05 PM 38.9803 -78.8308 272° West 394 453 27,200 1,729 Climbing Washington Center
Thu 10:28:05 PM 38.9825 -78.9750 271° West 405 466 28,800 1,475 Climbing Washington Center
Thu 10:29:07 PM 38.9867 -79.1222 272° West 410 472 30,200 1,600 Climbing Washington Center
Thu 10:30:05 PM 38.9906 -79.2692 272° West 415 478 32,000 1,780 Climbing Washington Center
Thu 10:31:05 PM 38.9944 -79.4136 272° West 415 478 33,700 1,488 Climbing Washington Center
Thu 10:32:06 PM 39.0089 -79.5506 278° West 405 466 35,000 836 Climbing Washington Center
Thu 10:33:07 PM 39.0206 -79.6928 276° West 405 466 35,400 504 Climbing Washington Center
Thu 10:34:05 PM 39.0303 -79.8350 275° West 405 466 36,000 303 Climbing Washington Center
Thu 10:35:06 PM 39.0444 -79.9669 278° West 398 458 36,000  Level Washington Center
Thu 10:36:58 PM 39.0619 -80.2214 275° West 399 459 36,000  Level Indianapolis Center
Thu 10:37:59 PM 39.0742 -80.3633 276° West 401 461 36,000  Level Indianapolis Center
Thu 10:39:00 PM 39.0839 -80.5056 275° West 400 460 36,000  Level Indianapolis Center
Thu 10:40:01 PM 39.1111 -80.6428 284° West 403 464 36,000  Level Indianapolis Center
Thu 10:41:02 PM 39.1625 -80.7639 299° West 392 451 36,000  Level Indianapolis Center
Thu 10:42:03 PM 39.2278 -80.9111 300° West 394 453 36,000 148 Level Indianapolis Center
Thu 10:43:04 PM 39.2822 -81.0336 300° West 395 455 36,300 492 Climbing Indianapolis Center
Thu 10:44:05 PM 39.3369 -81.1603 299° West 403 464 37,000 787 Climbing Indianapolis Center
Thu 10:45:06 PM 39.3922 -81.2878 299° West 408 470 37,900 488 Climbing Indianapolis Center
Thu 10:46:08 PM 39.4458 -81.4106 300° West 395 455 38,000 49 Climbing Indianapolis Center
Thu 10:47:09 PM 39.4983 -81.5342 299° West 395 455 38,000  Level Indianapolis Center
Thu 10:48:10 PM 39.5517 -81.6578 299° West 395 455 38,000 -836 Level Indianapolis Center
Thu 10:49:11 PM 39.6042 -81.7817 299° West 393 452 36,300 -984 Descending Indianapolis Center
Thu 10:50:12 PM 39.6597 -81.9103 299° West 408 470 36,000 -197 Descending Indianapolis Center
Thu 10:51:13 PM 39.7208 -82.0572 298° West 408 470 35,900  Descending Indianapolis Center
Thu 10:52:14 PM 39.7764 -82.1886 299° West 410 472 36,000 49 Climbing Indianapolis Center
Thu 10:53:15 PM 39.8333 -82.3214 299° West 417 480 36,000  Level Indianapolis Center
Thu 10:54:17 PM 39.8881 -82.4525 299° West 411 473 36,000 -1,304 Level Indianapolis Center
Thu 10:56:19 PM 39.9950 -82.7103 299° West 400 460 32,000 -1,738 Descending Indianapolis Center
Thu 10:57:20 PM 40.0464 -82.8331 299° West 388 447 30,700 -1,033 Descending Indianapolis Center
Thu 10:58:21 PM 40.0972 -82.9583 298° West 389 448 29,900 -341 Descending Indianapolis Center
Thu 10:59:23 PM 40.1483 -83.0844 298° West 390 449 30,000 49 Climbing Indianapolis Center
Thu 11:00:24 PM 40.1989 -83.2081 298° West 386 444 30,000  Level Indianapolis Center
Thu 11:01:25 PM 40.2581 -83.3539 298° West 388 447 30,000 -49 Level Indianapolis Center
Thu 11:02:26 PM 40.3094 -83.4783 298° West 388 447 29,900 -49 Descending Indianapolis Center
Thu 11:03:28 PM 40.3594 -83.6033 298° West 387 445 29,900 49 Level Indianapolis Center
Thu 11:04:29 PM 40.4094 -83.7286 298° West 387 445 30,000 49 Climbing Indianapolis Center
Thu 11:05:30 PM 40.4603 -83.8561 298° West 390 449 30,000 -49 Level Indianapolis Center
Thu 11:06:32 PM 40.5103 -83.9806 298° West 385 443 29,900  Descending Indianapolis Center
Thu 11:07:33 PM 40.5600 -84.1089 297° West 390 449 30,000  Climbing Indianapolis Center
Thu 11:08:34 PM 40.6106 -84.2372 297° West 392 451 29,900  Descending Indianapolis Center
Thu 11:09:35 PM 40.6608 -84.3647 297° West 391 450 30,000 61 Climbing Indianapolis Center
Thu 11:10:12 PM 40.6956 -84.4528 298° West 391 450 30,000  Level Chicago Center
Thu 11:11:13 PM 40.7378 -84.5825 293° West 387 445 30,000  Level Chicago Center
Thu 11:12:14 PM 40.7786 -84.7114 293° West 383 441 30,000  Level Chicago Center
Thu 11:13:15 PM 40.8200 -84.8414 293° West 384 442 30,000  Level Chicago Center
Thu 11:14:17 PM 40.8606 -84.9731 292° West 386 444 30,000  Level Chicago Center
Thu 11:15:18 PM 40.9014 -85.1053 292° West 387 445 30,000  Level Chicago Center
Thu 11:16:19 PM 40.9431 -85.2378 293° West 389 448 30,000  Level Chicago Center
Thu 11:17:20 PM 40.9833 -85.3717 292° West 391 450 30,000  Level Chicago Center
Thu 11:18:22 PM 41.0258 -85.5072 293° West 394 453 30,000  Level Chicago Center
Thu 11:19:23 PM 41.0667 -85.6433 292° West 396 456 30,000  Level Chicago Center
Thu 11:20:24 PM 41.1072 -85.7808 291° West 398 458 30,000  Level Chicago Center
Thu 11:21:25 PM 41.1592 -85.9456 293° West 401 461 30,000 -634 Level Chicago Center
Thu 11:22:27 PM 41.2003 -86.0842 292° West 401 461 28,700 -1,805 Descending Chicago Center
Thu 11:23:28 PM 41.2408 -86.2231 291° West 402 463 26,300 -2,213 Descending Chicago Center
Thu 11:24:29 PM 41.2811 -86.3592 292° West 396 456 24,200 -2,115 Descending Chicago Center
Thu 11:25:30 PM 41.3214 -86.4942 292° West 394 453 22,000 -2,115 Descending Chicago Center
Thu 11:26:31 PM 41.3597 -86.6261 291° West 385 443 19,900 -2,146 Descending Chicago Center
Thu 11:27:33 PM 41.4036 -86.7736 292° West 382 440 17,600 -2,195 Descending Chicago Center
Thu 11:28:34 PM 41.4411 -86.9033 291° West 378 435 15,400 -2,164 Descending Chicago Center
Thu 11:29:35 PM 41.4786 -87.0283 292° West 368 423 13,200 -2,312 Descending Chicago Center
Thu 11:30:23 PM 41.5167 -87.1333 296° West 362 417 11,200 -1,353 Descending Chicago TRACON
Thu 11:31:17 PM 41.5667 -87.2333 304° West 361 415 10,900 -158 Descending Chicago TRACON
Thu 11:32:17 PM 41.6333 -87.3333 312° West 365 420 10,900 74 Level Chicago TRACON
Thu 11:32:38 PM 41.6417 -87.3578 295° West 364 419 11,000 72 Climbing Chicago Center
Thu 11:33:40 PM 41.7061 -87.4594 310° West 362 417 11,000 -146 Level Chicago Center
Thu 11:34:41 PM 41.7653 -87.5531 310° West 335 386 10,700 -984 Descending Chicago Center
Thu 11:35:42 PM 41.8286 -87.6528 310° West 300 345 9,000 -1,590 Descending Chicago Center
Thu 11:36:38 PM 41.8833 -87.7333 312° West 290 334 7,600 -984 Descending Chicago TRACON
Thu 11:37:44 PM 41.9167 -87.8333 294° West 253 291 7,000 -300 Descending Chicago TRACON
Thu 11:38:38 PM 41.9167 -87.9167 270° West 240 276 7,000  Level Chicago TRACON
Thu 11:39:45 PM 41.9000 -87.9833 251° West 203 234 7,000 -99 Level Chicago TRACON
Thu 11:40:39 PM 41.8833 -88.0500 251° West 192 221 6,800 -789 Descending Chicago TRACON
Thu 11:41:39 PM 41.9000 -88.1167 289° West 195 224 5,500 -857 Descending Chicago TRACON
Thu 11:42:45 PM 41.9000 -88.2000 270° West 190 219 5,000 -455 Descending Chicago TRACON
Thu 11:43:51 PM 41.9236 -88.2597 298° West 207 238 4,500 -472 Descending Chicago Center
Thu 11:44:52 PM 41.9622 -88.2150 41° Northeast 205 236 4,000 -393 Descending Chicago Center
Thu 11:45:53 PM 41.9689 -88.1475 82° East 194 223 3,700 -295 Descending Chicago Center

Login

Don't have an account? Register now (free) for customized features, flight alerts, and more!